Time;durP1;ratioP1;P1;durP2;ratioP2;P2;SDS_P1;SDS_P2;PMS_P1;PMS_P2;Temp;Humidity;BMP_temperature;BMP_pressure;BME280_temperature;BME280_humidity;BME280_pressure;Samples;Min_cycle;Max_cycle;Signal;HPM_P1;HPM_P2
2022/11/06 00:01:22;;;;;;;9.10;3.80;;;9.80;99.90;;;9.60;100.00;101123.16;5124793;28;20154;-73
2022/11/06 00:03:56;;;;;;;8.20;3.33;;;9.70;99.90;;;9.62;100.00;101121.50;5125896;28;20039;-73
2022/11/06 00:09:21;;;;;;;6.00;3.28;;;9.70;99.90;;;9.61;100.00;101124.94;5165086;28;20042;-73
2022/11/06 00:11:53;;;;;;;9.45;3.70;;;9.70;99.90;;;9.59;100.00;101121.38;5157966;28;20046;-73
2022/11/06 00:14:26;;;;;;;8.95;3.33;;;9.70;99.90;;;9.60;100.00;101124.03;5165160;28;20050;-73
2022/11/06 00:16:58;;;;;;;7.30;2.90;;;9.70;99.90;;;9.63;100.00;101118.06;5165546;28;20065;-73
2022/11/06 00:19:32;;;;;;;8.25;3.55;;;9.70;99.90;;;9.64;100.00;101115.53;5163972;28;20110;-72
2022/11/06 00:22:05;;;;;;;6.68;3.08;;;9.70;99.90;;;9.65;100.00;101121.59;5165428;28;20052;-73
2022/11/06 00:24:37;;;;;;;7.47;2.85;;;9.70;99.90;;;9.65;100.00;101125.13;5165652;28;20519;-74
2022/11/06 00:27:10;;;;;;;5.63;2.85;;;9.80;99.90;;;9.68;100.00;101139.97;5165270;28;20133;-74
2022/11/06 00:29:42;;;;;;;6.43;2.75;;;9.80;99.90;;;9.69;100.00;101124.44;5154442;28;20089;-73
2022/11/06 00:32:14;;;;;;;8.65;2.97;;;9.70;99.90;;;9.70;100.00;101120.09;5165072;28;20054;-74
2022/11/06 00:34:48;;;;;;;6.68;2.75;;;9.80;99.90;;;9.70;100.00;101120.09;5164165;28;20053;-73
2022/11/06 00:37:20;;;;;;;4.60;2.25;;;9.80;99.90;;;9.69;100.00;101128.75;5164698;28;20085;-74
2022/11/06 00:39:52;;;;;;;6.72;2.50;;;9.80;99.90;;;9.68;100.00;101126.97;5165268;28;20070;-73
2022/11/06 00:42:24;;;;;;;11.20;2.83;;;9.80;99.90;;;9.66;100.00;101124.31;5164498;28;20064;-74
2022/11/06 00:44:56;;;;;;;7.38;3.05;;;9.80;99.90;;;9.65;100.00;101126.81;5164009;28;20082;-74
2022/11/06 00:47:30;;;;;;;7.70;3.20;;;9.80;99.90;;;9.67;100.00;101127.78;5164812;28;20042;-73
2022/11/06 00:50:04;;;;;;;9.43;4.03;;;9.80;99.90;;;9.63;100.00;101128.47;5164381;28;20483;-73
2022/11/06 00:52:37;;;;;;;10.95;3.28;;;9.70;99.90;;;9.61;100.00;101125.81;5164416;28;20058;-73
2022/11/06 00:55:10;;;;;;;9.38;2.80;;;9.70;99.90;;;9.59;100.00;101127.47;5164005;28;20064;-73
2022/11/06 00:57:42;;;;;;;10.13;2.85;;;9.70;99.90;;;9.58;100.00;101140.38;5164448;28;20076;-74
2022/11/06 01:00:16;;;;;;;9.60;2.85;;;9.70;99.90;;;9.57;100.00;101141.22;5164118;28;20113;-73
2022/11/06 01:02:48;;;;;;;6.50;2.75;;;9.70;99.90;;;9.54;100.00;101144.59;5164480;28;20470;-73
2022/11/06 01:05:22;;;;;;;5.22;2.33;;;9.60;99.90;;;9.52;100.00;101149.72;5165420;28;20046;-72
2022/11/06 01:07:56;;;;;;;6.78;2.60;;;9.60;99.90;;;9.51;100.00;101144.44;5164652;28;20074;-73
2022/11/06 01:10:30;;;;;;;7.03;2.90;;;9.60;99.90;;;9.50;100.00;101127.94;5164628;28;20131;-73
2022/11/06 01:13:02;;;;;;;4.35;2.15;;;9.60;99.90;;;9.49;100.00;101146.97;5164371;28;20422;-73
2022/11/06 01:15:37;;;;;;;4.15;2.17;;;9.60;99.90;;;9.48;100.00;101144.31;5164841;28;20046;-72
2022/11/06 01:18:09;;;;;;;4.55;2.28;;;9.60;99.90;;;9.47;100.00;101148.63;5164119;28;20053;-74
2022/11/06 01:20:42;;;;;;;4.95;1.90;;;9.60;99.90;;;9.46;100.00;101136.44;5164566;28;20116;-72
2022/11/06 01:23:15;;;;;;;7.82;2.63;;;9.60;99.90;;;9.44;100.00;101132.84;5162808;28;20432;-74
2022/11/06 01:25:58;;;;;;;4.13;1.83;;;9.50;99.90;;;9.39;100.00;101129.19;5164353;28;20057;-73
2022/11/06 01:28:30;;;;;;;3.00;1.80;;;9.50;99.90;;;9.36;100.00;101134.25;5141962;23;20106;-85
2022/11/06 01:31:04;;;;;;;5.82;2.47;;;9.50;99.90;;;9.35;100.00;101140.28;5130816;28;20047;-84
2022/11/06 01:33:36;;;;;;;3.97;1.95;;;9.50;99.90;;;9.33;100.00;101126.31;5131988;29;20039;-84
2022/11/06 01:36:11;;;;;;;5.85;2.65;;;9.40;99.90;;;9.29;100.00;101120.88;5129689;29;20043;-85
2022/11/06 01:38:46;;;;;;;3.05;1.80;;;9.40;99.90;;;9.28;100.00;101119.13;5129886;29;20062;-85
2022/11/06 01:41:21;;;;;;;;;;;9.40;99.90;;;9.25;100.00;101122.44;5131934;28;20049;-86
2022/11/06 01:43:56;;;;;;;5.18;1.98;;;9.40;99.90;;;9.25;100.00;101114.66;5128961;29;19923;-86
2022/11/06 01:46:31;;;;;;;3.08;1.85;;;9.30;99.90;;;9.24;100.00;101110.25;5131674;29;20464;-86
2022/11/06 01:49:11;;;;;;;5.22;2.22;;;9.30;99.90;;;9.20;100.00;101104.06;5129575;29;20059;-85
2022/11/06 01:51:48;;;;;;;3.58;2.08;;;9.30;99.90;;;9.21;100.00;101102.34;5130313;28;20050;-86
2022/11/06 01:54:24;;;;;;;4.22;2.20;;;9.30;99.90;;;9.20;100.00;101100.56;5129781;29;20065;-86
2022/11/06 01:56:59;;;;;;;2.70;1.60;;;9.30;99.90;;;9.20;100.00;101100.56;5130370;29;20121;-86
2022/11/06 01:59:36;;;;;;;8.80;2.45;;;9.30;99.90;;;9.18;100.00;101095.28;5129045;29;20051;-86
2022/11/06 02:02:09;;;;;;;8.25;2.38;;;9.30;99.90;;;9.12;100.00;101081.09;5129203;29;20036;-85
2022/11/06 02:04:44;;;;;;;4.15;2.05;;;9.30;99.90;;;9.11;100.00;101080.22;5128858;28;20062;-86
2022/11/06 02:07:19;;;;;;;4.50;2.25;;;9.20;99.90;;;9.07;100.00;101061.81;5129326;28;20046;-85
2022/11/06 02:09:51;;;;;;;4.05;2.25;;;9.20;99.90;;;9.07;100.00;101054.91;5129036;29;20053;-85
2022/11/06 02:12:42;;;;;;;3.55;2.10;;;9.20;99.90;;;9.08;100.00;101061.00;5145335;28;20047;-85
2022/11/06 02:15:27;;;;;;;4.63;1.98;;;9.20;99.90;;;9.09;100.00;101067.97;5129463;29;20067;-87
2022/11/06 02:18:27;;;;;;;4.78;2.03;;;9.20;99.90;;;9.08;100.00;101069.69;5131924;29;20094;-85
2022/11/06 02:21:39;;;;;;;7.20;2.20;;;9.20;99.90;;;9.07;100.00;101072.22;5130494;29;20067;-86
2022/11/06 02:24:59;;;;;;;5.20;1.90;;;9.20;99.90;;;9.06;100.00;101071.31;5129572;29;20050;-86
2022/11/06 02:27:35;;;;;;;6.05;1.92;;;9.20;99.90;;;9.06;100.00;101078.22;5113384;29;20059;-87
2022/11/06 02:30:09;;;;;;;4.53;2.10;;;9.20;99.90;;;9.05;100.00;101068.63;5129693;28;20054;-86
2022/11/06 02:32:46;;;;;;;3.30;1.80;;;9.20;99.90;;;9.06;100.00;101065.22;5130167;28;20062;-87
2022/11/06 02:35:23;;;;;;;4.97;1.95;;;9.20;99.90;;;9.06;100.00;101062.63;5130309;29;20055;-86
2022/11/06 02:38:03;;;;;;;3.95;2.22;;;9.20;99.90;;;9.09;100.00;101067.97;5130238;29;20071;-85
2022/11/06 02:40:40;;;;;;;3.17;1.75;;;9.20;99.90;;;9.11;100.00;101068.91;5129462;29;20047;-85
2022/11/06 02:43:15;;;;;;;4.82;2.25;;;9.20;99.90;;;9.09;100.00;101068.84;5130167;29;20408;-86
2022/11/06 02:45:54;;;;;;;4.90;1.80;;;9.20;99.90;;;9.08;100.00;101069.69;5132211;29;20055;-87
2022/11/06 02:48:34;;;;;;;2.95;1.90;;;9.20;99.90;;;9.07;100.00;101072.22;5133774;28;20051;-87
2022/11/06 02:51:10;;;;;;;6.25;1.90;;;9.20;99.90;;;9.07;100.00;101061.81;5133469;29;20568;-87
2022/11/06 02:53:45;;;;;;;10.05;2.40;;;9.20;99.90;;;9.12;100.00;101055.09;5143205;28;20039;-87
2022/11/06 02:56:22;;;;;;;4.60;2.03;;;9.20;99.90;;;9.10;100.00;101052.44;5153391;28;20062;-87
2022/11/06 02:59:01;;;;;;;6.20;1.92;;;9.20;99.90;;;9.11;100.00;101045.50;5152333;28;20158;-88
2022/11/06 03:01:37;;;;;;;4.00;2.03;;;9.30;99.90;;;9.12;100.00;101047.28;5150421;28;20393;-86
2022/11/06 03:04:16;;;;;;;3.75;1.70;;;9.20;99.90;;;9.11;100.00;101053.31;5152348;28;20050;-87
2022/11/06 03:06:56;;;;;;;7.03;2.17;;;9.20;99.90;;;9.08;100.00;101053.19;5151919;28;20053;-87
2022/11/06 03:09:32;;;;;;;3.60;1.73;;;9.20;99.90;;;9.08;100.00;101059.28;5151084;28;20424;-86
2022/11/06 03:12:19;;;;;;;6.00;2.15;;;9.20;99.90;;;9.10;100.00;101061.94;5151872;28;20576;-86
2022/11/06 03:14:57;;;;;;;2.88;1.67;;;9.20;99.90;;;9.12;100.00;101065.50;5151250;28;20051;-86
2022/11/06 03:17:40;;;;;;;3.55;2.22;;;9.20;99.90;;;9.07;100.00;101056.63;5153636;28;20038;-87
2022/11/06 03:20:22;;;;;;;3.15;1.50;;;9.20;99.90;;;9.07;100.00;101062.72;5155852;28;20047;-88
2022/11/06 03:23:01;;;;;;;6.45;2.10;;;9.20;99.90;;;9.05;100.00;101059.13;5155632;28;20082;-87
2022/11/06 03:25:43;;;;;;;3.33;1.50;;;9.20;99.90;;;9.02;100.00;101053.81;5152869;28;20039;-88
2022/11/06 03:28:25;;;;;;;3.42;1.95;;;9.20;99.90;;;9.01;100.00;101044.22;5153930;28;20049;-86
2022/11/06 03:31:01;;;;;;;;;;;9.20;99.90;;;8.97;100.00;101035.38;5153711;28;20397;-86
2022/11/06 03:33:38;;;;;;;5.50;1.83;;;9.10;99.90;;;8.91;100.00;101029.91;5152195;28;19929;-87
2022/11/06 03:36:15;;;;;;;4.53;1.60;;;9.10;99.90;;;8.91;100.00;101029.91;5155337;28;20043;-87
2022/11/06 03:38:51;;;;;;;4.72;1.70;;;9.10;99.90;;;8.91;100.00;101040.31;5154370;28;20432;-88
2022/11/06 03:41:30;;;;;;;3.13;1.73;;;9.10;99.90;;;8.90;100.00;101043.72;5153965;28;20047;-87
2022/11/06 03:44:05;;;;;;;5.43;1.50;;;9.00;99.90;;;8.90;100.00;101054.13;5153996;28;20050;-87
2022/11/06 03:46:47;;;;;;;5.60;2.13;;;9.10;99.90;;;8.91;100.00;101066.31;5153635;28;20050;-87
2022/11/06 03:49:25;;;;;;;2.88;1.30;;;9.10;99.90;;;8.93;100.00;101059.50;5153131;28;20054;-86
2022/11/06 03:52:01;;;;;;;4.93;1.63;;;9.10;99.90;;;8.90;100.00;101063.66;5154627;28;20047;-87
2022/11/06 03:54:40;;;;;;;3.47;1.58;;;9.10;99.90;;;8.88;100.00;101068.78;5154896;28;20051;-87
2022/11/06 03:57:18;;;;;;;4.63;1.80;;;9.00;99.90;;;8.90;100.00;101077.53;5153871;28;20051;-88
2022/11/06 03:59:55;;;;;;;3.70;1.55;;;9.00;99.90;;;8.89;100.00;101078.34;5152904;28;20046;-87
2022/11/06 04:02:32;;;;;;;3.13;1.85;;;9.00;99.90;;;8.86;100.00;101056.50;5152392;28;20047;-88
2022/11/06 04:05:11;;;;;;;5.00;2.10;;;9.00;99.90;;;8.81;100.00;101052.84;5153119;28;20115;-87
2022/11/06 04:13:56;;;;;;;5.75;1.65;;;9.00;99.90;;;8.79;100.00;101067.44;5152428;28;20501;-88
2022/11/06 04:16:33;;;;;;;3.78;1.60;;;8.90;99.90;;;8.79;100.00;101070.06;5152118;28;20085;-87
2022/11/06 04:19:16;;;;;;;4.88;1.70;;;9.00;99.90;;;8.79;100.00;101063.13;5152147;28;20046;-86
2022/11/06 04:22:16;;;;;;;2.33;1.40;;;8.90;99.90;;;8.80;100.00;101059.75;5152782;28;20082;-87
2022/11/06 04:28:10;;;;;;;3.72;2.13;;;9.00;99.90;;;8.77;100.00;101054.41;5152136;28;20086;-87
2022/11/06 04:30:54;;;;;;;4.00;1.83;;;9.00;99.90;;;8.78;100.00;101061.38;5154508;28;20050;-87
2022/11/06 04:33:35;;;;;;;7.43;1.85;;;9.00;99.90;;;8.84;100.00;101059.06;5153648;28;20046;-88
2022/11/06 04:36:19;;;;;;;5.13;1.60;;;9.00;99.90;;;8.82;100.00;101050.31;5154777;28;20130;-86
2022/11/06 04:39:00;;;;;;;4.30;1.50;;;9.00;99.90;;;8.82;100.00;101055.50;5152856;28;20106;-89
2022/11/06 04:41:38;;;;;;;4.03;2.05;;;9.00;99.90;;;8.80;100.00;101046.75;5153138;28;20070;-87
2022/11/06 04:44:15;;;;;;;3.95;1.33;;;9.00;99.90;;;8.82;100.00;101039.91;5154113;28;20416;-86
2022/11/06 04:46:53;;;;;;;4.32;1.55;;;9.00;99.90;;;8.79;100.00;101026.75;5154601;28;20516;-86
2022/11/06 04:49:27;;;;;;;5.00;2.00;;;9.00;99.90;;;8.80;100.00;101025.97;5156597;28;20070;-86
2022/11/06 04:52:04;;;;;;;3.40;1.70;;;9.00;99.90;;;8.80;100.00;101020.75;5155631;28;20051;-85
2022/11/06 04:54:37;;;;;;;4.15;1.50;;;9.00;99.90;;;8.83;100.00;101013.09;5154355;28;20054;-87
2022/11/06 04:57:09;;;;;;;4.07;1.70;;;9.00;99.90;;;8.85;100.00;101002.75;5155052;28;20055;-87
2022/11/06 04:59:41;;;;;;;4.35;1.55;;;9.00;99.90;;;8.87;100.00;100995.94;5156170;28;20046;-87
2022/11/06 05:02:13;;;;;;;4.82;1.73;;;9.00;99.90;;;8.86;100.00;101005.41;5165363;28;20047;-88
2022/11/06 05:04:45;;;;;;;6.53;1.73;;;9.00;99.90;;;8.84;100.00;100999.25;5169198;28;20054;-88
2022/11/06 05:07:18;;;;;;;4.13;1.60;;;9.00;99.90;;;8.86;100.00;100987.22;5169509;28;20035;-88
2022/11/06 05:09:51;;;;;;;4.72;1.80;;;9.00;99.90;;;8.82;100.00;100977.50;5166219;28;20054;-87
2022/11/06 05:12:23;;;;;;;3.42;1.63;;;9.00;99.90;;;8.84;100.00;100975.88;5204609;23;20594;-70
2022/11/06 05:14:55;;;;;;;2.95;1.27;;;9.00;99.90;;;8.89;100.00;100973.47;5141964;28;20047;-70
2022/11/06 05:17:27;;;;;;;4.32;1.70;;;9.00;99.90;;;8.92;100.00;100974.47;5143956;28;20050;-70
2022/11/06 05:19:59;;;;;;;3.40;1.55;;;9.10;99.90;;;8.93;100.00;100965.91;5142946;28;20061;-71
2022/11/06 05:25:22;;;;;;;2.47;1.40;;;9.10;99.90;;;8.94;100.00;100962.47;5143695;28;20468;-70
2022/11/06 05:27:55;;;;;;;4.60;1.20;;;9.10;99.90;;;8.95;100.00;100958.16;5144114;28;20514;-72
2022/11/06 05:30:28;;;;;;;2.78;1.60;;;9.10;99.90;;;8.93;100.00;100968.50;5144274;28;20411;-72
2022/11/06 05:33:02;;;;;;;2.35;1.30;;;9.10;99.90;;;8.93;100.00;100958.09;5143641;28;20118;-71
2022/11/06 05:35:34;;;;;;;3.28;1.45;;;9.10;99.90;;;8.96;100.00;100944.31;5144278;28;20062;-71
2022/11/06 05:38:08;;;;;;;3.72;1.25;;;9.10;99.90;;;8.93;100.00;100945.09;5143539;28;20047;-70
2022/11/06 05:40:40;;;;;;;2.72;1.30;;;9.10;99.90;;;8.92;100.00;100942.41;5143859;28;20057;-70
2022/11/06 05:43:12;;;;;;;2.47;1.20;;;9.10;99.90;;;8.90;100.00;100938.84;5143573;28;20055;-70
2022/11/06 05:45:44;;;;;;;4.32;1.30;;;9.10;99.90;;;8.91;100.00;100944.13;5143690;28;20061;-71
2022/11/06 05:48:16;;;;;;;3.58;1.52;;;9.10;99.90;;;8.89;100.00;100932.78;5143903;28;20488;-70
2022/11/06 05:50:48;;;;;;;3.90;1.45;;;9.10;99.90;;;8.88;100.00;100936.19;5143792;28;20260;-70
2022/11/06 05:53:22;;;;;;;2.40;1.35;;;9.00;99.90;;;8.84;100.00;100934.28;5143584;28;20058;-71
2022/11/06 05:55:54;;;;;;;4.97;1.60;;;9.00;99.90;;;8.80;100.00;100919.38;5144023;28;20500;-70
2022/11/06 05:58:26;;;;;;;2.78;1.20;;;9.00;99.90;;;8.79;100.00;100909.78;5143529;28;20050;-70
2022/11/06 06:00:59;;;;;;;2.78;1.17;;;9.00;99.90;;;8.77;100.00;100906.22;5143998;28;20043;-70
2022/11/06 06:03:31;;;;;;;3.95;1.40;;;8.90;99.90;;;8.77;100.00;100916.63;5143291;28;20074;-69
2022/11/06 06:06:03;;;;;;;4.65;1.92;;;9.00;99.90;;;8.75;100.00;100915.69;5143807;28;20051;-71
2022/11/06 06:08:37;;;;;;;3.40;1.13;;;9.00;99.90;;;8.72;100.00;100907.72;5141719;28;20082;-71
2022/11/06 06:11:09;;;;;;;3.78;1.40;;;8.90;99.90;;;8.74;100.00;100911.31;5142330;28;20051;-71
2022/11/06 06:13:41;;;;;;;2.78;1.40;;;8.90;99.90;;;8.77;100.00;100905.34;5143212;28;20555;-70
2022/11/06 06:16:14;;;;;;;1.35;1.02;;;8.90;99.90;;;8.79;100.00;100901.09;5143751;28;20082;-71
2022/11/06 06:18:50;;;;;;;3.72;1.38;;;8.90;99.90;;;8.78;100.00;100881.13;5142964;28;20066;-70
2022/11/06 06:21:22;;;;;;;3.05;1.10;;;9.00;99.90;;;8.73;100.00;100891.31;5143558;28;20105;-70
2022/11/06 06:23:55;;;;;;;5.15;1.48;;;8.90;99.90;;;8.70;100.00;100888.59;5142871;28;20065;-69
2022/11/06 06:26:27;;;;;;;2.80;1.30;;;8.90;99.90;;;8.66;100.00;100884.06;5143027;28;20121;-69
2022/11/06 06:29:00;;;;;;;2.10;1.20;;;8.80;99.90;;;8.62;100.00;100888.28;5140800;28;20046;-70
2022/11/06 06:31:33;;;;;;;3.95;1.08;;;8.80;99.90;;;8.62;100.00;100880.47;5143042;28;20051;-69
2022/11/06 06:34:05;;;;;;;3.35;1.13;;;8.80;99.90;;;8.58;100.00;100872.47;5142936;28;20126;-70
2022/11/06 06:36:37;;;;;;;2.90;1.25;;;8.80;99.90;;;8.55;100.00;100869.75;5143300;28;20050;-72
2022/11/06 06:39:10;;;;;;;4.75;1.30;;;8.70;99.90;;;8.48;100.00;100870.31;5141770;28;20061;-70
2022/11/06 06:41:43;;;;;;;2.80;1.23;;;8.70;99.90;;;8.46;100.00;100888.41;5143200;28;20121;-69
2022/11/06 06:44:16;;;;;;;3.97;1.42;;;8.70;99.90;;;8.47;100.00;100889.28;5143330;28;20051;-70
2022/11/06 06:46:48;;;;;;;3.35;1.10;;;8.70;99.90;;;8.48;100.00;100896.28;5142935;28;20046;-71
2022/11/06 06:49:20;;;;;;;2.50;1.17;;;8.70;99.90;;;8.48;100.00;100897.16;5142728;28;20050;-70
2022/11/06 06:51:53;;;;;;;2.70;1.10;;;8.60;99.90;;;8.47;100.00;100894.47;5144601;28;20047;-70
2022/11/06 06:54:26;;;;;;;2.17;0.80;;;8.60;99.90;;;8.48;100.00;100891.09;5146674;28;20061;-70
2022/11/06 06:56:58;;;;;;;2.80;1.25;;;8.60;99.90;;;8.48;100.00;100897.16;5146932;28;20407;-71
2022/11/06 06:59:31;;;;;;;1.27;1.10;;;8.60;99.90;;;8.51;100.00;100906.78;5146924;28;20039;-71
2022/11/06 07:02:03;;;;;;;2.40;1.17;;;8.60;99.90;;;8.53;100.00;100905.16;5147376;28;20559;-69
2022/11/06 07:04:35;;;;;;;2.00;1.00;;;8.70;99.90;;;8.57;100.00;100912.25;5146969;28;20054;-55
2022/11/06 07:07:08;;;;;;;3.05;1.50;;;8.70;99.90;;;8.58;100.00;100920.13;5147050;28;20051;-55
2022/11/06 07:09:41;;;;;;;1.05;0.90;;;8.70;99.90;;;8.59;100.00;100923.59;5146951;28;20054;-57
2022/11/06 07:12:13;;;;;;;1.08;0.93;;;8.70;99.90;;;8.59;100.00;100921.00;5146653;28;20054;-56
2022/11/06 07:14:45;;;;;;;1.33;1.00;;;8.70;99.90;;;8.59;100.00;100931.41;5146939;28;20078;-55
2022/11/06 07:17:17;;;;;;;2.60;1.13;;;8.70;99.90;;;8.60;100.00;100934.06;5146924;28;20692;-57
2022/11/06 07:19:49;;;;;;;3.22;1.13;;;8.70;99.90;;;8.62;100.00;100922.06;5146860;28;20129;-58
2022/11/06 07:22:22;;;;;;;4.07;1.50;;;8.70;99.90;;;8.65;100.00;100916.09;5146478;28;20050;-57
2022/11/06 07:24:55;;;;;;;2.05;1.05;;;8.70;99.90;;;8.70;100.00;100904.19;5146613;28;20059;-57
2022/11/06 07:27:27;;;;;;;3.10;1.15;;;8.80;99.90;;;8.76;100.00;100903.56;5146269;28;20042;-57
2022/11/06 07:30:00;;;;;;;3.22;1.17;;;8.80;99.90;;;8.81;100.00;100905.56;5146509;28;20047;-58
2022/11/06 07:32:32;;;;;;;4.35;1.42;;;8.90;99.90;;;8.85;100.00;100903.97;5146182;28;20039;-57
2022/11/06 07:35:06;;;;;;;4.47;1.27;;;8.90;99.90;;;8.86;100.00;100893.63;5146619;28;20047;-57
2022/11/06 07:37:38;;;;;;;3.40;1.23;;;9.00;99.90;;;8.92;100.00;100891.28;5146286;28;20058;-56
2022/11/06 07:40:13;;;;;;;4.45;1.38;;;9.00;99.90;;;8.95;100.00;100904.44;5146360;28;20047;-57
2022/11/06 07:42:45;;;;;;;2.75;1.30;;;9.10;99.90;;;8.94;100.00;100905.25;5146135;28;20069;-57
2022/11/06 07:45:20;;;;;;;4.80;1.83;;;9.10;99.90;;;8.96;100.00;100906.22;5144779;28;20074;-57
2022/11/06 07:47:56;;;;;;;2.03;1.23;;;9.10;99.90;;;9.04;100.00;100905.66;5146328;28;20419;-57
2022/11/06 07:50:29;;;;;;;6.63;1.70;;;9.20;99.90;;;9.06;100.00;100906.59;5146315;28;20054;-56
2022/11/06 07:53:02;;;;;;;4.35;1.70;;;9.20;99.90;;;9.11;100.00;100902.47;5145796;28;20042;-57
2022/11/06 07:55:36;;;;;;;2.78;1.48;;;9.20;99.90;;;9.16;100.00;100895.75;5146058;28;20051;-57
2022/11/06 07:58:08;;;;;;;3.40;1.65;;;9.30;99.90;;;9.22;100.00;100907.31;5145817;28;20058;-57
2022/11/06 08:00:40;;;;;;;3.40;1.38;;;9.30;99.90;;;9.28;100.00;100906.69;5146236;28;20047;-57
2022/11/06 08:03:12;;;;;;;6.30;1.70;;;9.40;99.90;;;9.36;100.00;100910.50;5153660;28;20125;-57
2022/11/06 08:05:45;;;;;;;3.92;1.70;;;9.50;99.90;;;9.46;100.00;100907.44;5145484;28;20043;-57
2022/11/06 08:08:17;;;;;;;4.65;1.60;;;9.60;99.90;;;9.55;100.00;100900.84;5145806;28;20046;-55
2022/11/06 08:10:52;;;;;;;3.65;1.70;;;9.70;99.90;;;9.67;100.00;100896.13;5145907;28;20075;-56
2022/11/06 08:13:25;;;;;;;3.67;1.70;;;9.80;99.90;;;9.79;100.00;100901.81;5143929;28;20075;-57
2022/11/06 08:15:57;;;;;;;5.25;1.75;;;9.90;99.90;;;9.88;100.00;100896.09;5145441;28;20475;-55
2022/11/06 08:18:29;;;;;;;2.65;1.63;;;9.90;99.90;;;9.96;100.00;100882.53;5145294;28;20133;-56
2022/11/06 08:21:02;;;;;;;4.15;1.35;;;10.00;99.90;;;10.06;100.00;100881.19;5145932;28;20106;-56
2022/11/06 08:23:35;;;;;;;4.00;1.73;;;10.10;99.90;;;10.20;100.00;100861.75;5142758;28;20097;-56
2022/11/06 08:26:08;;;;;;;4.80;1.58;;;10.20;99.90;;;10.40;100.00;100864.22;5145471;28;20726;-55
2022/11/06 08:28:41;;;;;;;2.78;1.25;;;10.30;99.90;;;10.66;100.00;100866.03;5144240;28;20055;-56
2022/11/06 08:31:13;;;;;;;4.15;1.55;;;10.60;99.90;;;10.95;100.00;100861.84;5142916;28;20494;-55
2022/11/06 08:33:45;;;;;;;3.72;1.92;;;10.80;99.90;;;11.23;100.00;100860.19;5142528;28;20035;-56
2022/11/06 08:36:18;;;;;;;5.13;2.30;;;11.10;99.90;;;11.45;100.00;100854.81;5145216;28;20404;-55
2022/11/06 08:38:50;;;;;;;4.75;1.92;;;11.40;99.90;;;11.64;100.00;100854.56;5145068;28;20046;-57
2022/11/06 08:41:23;;;;;;;6.70;1.50;;;11.60;99.90;;;11.87;100.00;100863.16;5153762;28;20046;-57
2022/11/06 08:43:56;;;;;;;4.25;1.58;;;11.70;99.90;;;12.09;100.00;100853.34;5180443;28;20062;-61
2022/11/06 08:46:28;;;;;;;5.85;1.42;;;12.00;99.90;;;12.37;100.00;100855.00;5165878;28;20050;-56
2022/11/06 08:49:00;;;;;;;3.55;1.52;;;12.20;99.90;;;12.89;100.00;100845.97;5165091;28;20074;-61
2022/11/06 08:51:32;;;;;;;4.68;1.70;;;12.80;99.90;;;13.53;100.00;100845.88;5165058;28;20839;-58
2022/11/06 08:54:05;;;;;;;4.68;1.50;;;13.50;99.90;;;13.74;100.00;100850.72;5165153;28;20046;-55
2022/11/06 08:56:38;;;;;;;2.83;1.20;;;13.70;99.90;;;13.73;100.00;100848.94;5165178;28;20109;-55
2022/11/06 08:59:11;;;;;;;7.50;1.63;;;13.70;99.90;;;13.60;98.00;100844.28;5165122;28;20129;-55
2022/11/06 09:01:43;;;;;;;5.35;1.52;;;13.60;99.90;;;13.67;98.84;100833.09;5165101;28;20133;-56
2022/11/06 09:04:15;;;;;;;2.72;1.42;;;13.60;99.90;;;13.72;98.16;100831.47;5165097;28;20050;-55
2022/11/06 09:06:48;;;;;;;6.57;2.00;;;13.60;99.90;;;13.66;97.51;100836.56;5165544;28;20073;-57
2022/11/06 09:09:20;;;;;;;3.85;1.40;;;13.50;99.90;;;13.71;96.94;100832.31;5165517;28;20400;-57
2022/11/06 09:11:54;;;;;;;5.35;2.22;;;13.60;99.90;;;13.63;95.83;100828.66;5163906;28;20073;-58
2022/11/06 09:14:26;;;;;;;4.25;1.42;;;13.50;99.90;;;13.63;96.41;100832.97;5147676;28;20070;-56
2022/11/06 09:16:59;;;;;;;4.03;1.67;;;13.50;99.90;;;13.67;96.95;100829.59;5158760;28;20101;-58
2022/11/06 09:19:31;;;;;;;4.78;1.30;;;13.50;99.90;;;13.86;100.00;100821.28;5165082;28;20046;-56
2022/11/06 09:22:03;;;;;;;3.78;1.38;;;13.70;99.90;;;14.09;97.93;100816.56;5164075;28;20078;-58
2022/11/06 09:24:35;;;;;;;2.55;1.40;;;13.90;99.90;;;14.38;96.61;100804.91;5159111;28;20355;-57
2022/11/06 09:27:09;;;;;;;7.10;1.52;;;14.10;99.90;;;14.61;93.98;100805.38;5143077;28;20498;-57
2022/11/06 09:29:43;;;;;;;2.10;1.30;;;14.30;99.90;;;14.75;92.56;100799.50;5163110;28;20045;-58
2022/11/06 09:32:15;;;;;;;5.20;1.63;;;14.40;99.90;;;14.73;89.78;100803.81;5164150;28;20050;-60
2022/11/06 09:34:47;;;;;;;5.95;1.73;;;14.50;99.90;;;14.71;89.10;100795.94;5164338;28;20527;-58
2022/11/06 09:37:19;;;;;;;6.25;2.38;;;14.50;99.90;;;14.61;88.64;100797.53;5164410;28;20042;-59
2022/11/06 09:39:52;;;;;;;6.90;2.40;;;14.40;99.70;;;14.42;88.00;100786.63;5164253;28;20039;-59
2022/11/06 09:42:39;;;;;;;7.88;3.45;;;14.30;99.30;;;14.06;89.09;100782.41;5164945;28;20403;-59
2022/11/06 09:45:21;;;;;;;5.32;2.30;;;14.00;99.50;;;13.82;90.17;100788.00;5164713;28;20060;-58
2022/11/06 09:47:59;;;;;;;6.32;2.50;;;13.80;99.80;;;13.54;91.24;100790.03;5140369;28;20525;-57
2022/11/06 09:50:37;;;;;;;6.95;2.45;;;13.50;99.90;;;13.28;92.56;100793.78;5164076;28;20515;-59
2022/11/06 09:53:17;;;;;;;4.35;1.83;;;13.30;99.90;;;13.25;93.45;100778.91;5164580;28;20050;-58
2022/11/06 09:55:50;;;;;;;6.05;2.60;;;13.20;99.90;;;13.29;94.43;100775.47;5164784;28;20065;-59
2022/11/06 09:58:30;;;;;;;6.00;2.70;;;13.10;99.90;;;13.63;93.77;100772.75;5152437;28;20062;-57
2022/11/06 10:01:11;;;;;;;6.35;2.15;;;13.30;99.90;;;13.95;93.54;100774.31;5158354;28;20109;-57
2022/11/06 10:03:48;;;;;;;5.07;1.77;;;13.60;99.90;;;14.24;91.00;100767.03;5138739;28;20439;-59
2022/11/06 10:06:23;;;;;;;4.78;2.03;;;13.80;99.90;;;14.39;91.06;100767.31;5130868;28;20453;-57
2022/11/06 10:09:00;;;;;;;4.28;2.45;;;14.00;99.90;;;14.58;91.71;100765.09;5143357;28;20042;-57
2022/11/06 10:11:55;;;;;;;5.13;2.00;;;14.20;99.90;;;14.63;88.59;100766.06;5143388;28;20101;-58
2022/11/06 10:14:44;;;;;;;6.05;2.60;;;14.30;99.80;;;14.56;88.53;100769.44;5143325;28;20105;-58
2022/11/06 10:17:33;;;;;;;5.57;2.30;;;14.30;99.50;;;14.63;88.36;100755.56;5143784;28;20054;-59
2022/11/06 10:20:18;;;;;;;4.72;2.42;;;14.40;99.50;;;14.62;86.97;100759.06;5143135;28;20065;-59
2022/11/06 10:23:03;;;;;;;3.25;1.92;;;14.40;98.90;;;14.54;87.56;100743.19;5142585;28;20053;-58
2022/11/06 10:25:46;;;;;;;4.97;2.03;;;14.30;99.10;;;14.46;88.30;100741.22;5143334;28;20050;-57
2022/11/06 10:29:04;;;;;;;4.18;2.15;;;14.30;99.20;;;14.39;88.42;100738.47;5141453;28;20153;-58
2022/11/06 10:31:50;;;;;;;4.18;1.65;;;14.20;99.30;;;13.96;88.22;100736.78;5141817;28;20408;-57
2022/11/06 10:34:29;;;;;;;5.13;2.70;;;13.90;98.90;;;13.82;89.56;100740.84;5141996;28;20396;-57
2022/11/06 10:37:06;;;;;;;6.20;3.03;;;13.80;99.30;;;13.75;90.39;100742.47;5143293;28;20145;-58
2022/11/06 10:39:38;;;;;;;8.73;4.05;;;13.70;99.70;;;13.71;90.80;100737.13;5157766;28;20061;-57
2022/11/06 10:42:16;;;;;;;10.45;3.42;;;13.60;99.90;;;13.53;91.25;100737.63;5143030;28;20054;-57
2022/11/06 10:44:54;;;;;;;19.60;6.95;;;13.50;99.90;;;13.35;91.47;100729.34;5143322;28;20106;-58
2022/11/06 10:47:33;;;;;;;11.60;3.80;;;13.30;99.90;;;13.27;92.26;100726.56;5142419;28;20105;-59
2022/11/06 10:50:12;;;;;;;5.78;2.35;;;13.20;99.90;;;13.07;92.86;100718.22;5142785;28;20061;-58
2022/11/06 10:52:53;;;;;;;9.20;2.60;;;13.10;99.90;;;13.06;93.12;100715.56;5141567;28;20133;-58
2022/11/06 10:55:48;;;;;;;9.98;3.88;;;13.00;99.90;;;12.94;93.70;100713.56;5143088;28;20628;-58
2022/11/06 10:58:23;;;;;;;10.90;3.33;;;12.90;99.90;;;12.89;94.36;100712.53;5136586;28;20515;-58
2022/11/06 11:00:59;;;;;;;7.22;3.25;;;12.90;99.90;;;12.85;94.60;100702.88;5143307;28;20105;-57
2022/11/06 11:03:36;;;;;;;8.95;3.30;;;12.80;99.90;;;12.78;95.60;100678.31;5143001;28;20508;-59
2022/11/06 11:06:08;;;;;;;7.10;2.10;;;12.80;99.90;;;12.73;96.18;100670.34;5143289;28;20094;-58
2022/11/06 11:08:43;;;;;;;10.38;3.70;;;12.70;99.90;;;12.71;96.02;100674.66;5142512;28;20055;-57